Time;durP1;ratioP1;P1;durP2;ratioP2;P2;SDS_P1;SDS_P2;PMS_P1;PMS_P2;Temp;Humidity;BMP_temperature;BMP_pressure;BME280_temperature;BME280_humidity;BME280_pressure;Samples;Min_cycle;Max_cycle;Signal;HPM_P1;HPM_P2
2023/06/29 06:33:16;;;;;;;0.63;0.63;;;;;;;;;;7399099;19;20169;-89
2023/06/29 06:35:43;;;;;;;0.68;0.68;;;;;;;;;;7396376;19;20141;-88
2023/06/29 06:38:10;;;;;;;1.17;1.10;;;;;;;;;;7398478;19;20617;-88
2023/06/29 06:40:36;;;;;;;0.88;0.68;;;;;;;;;;7400429;19;20165;-88
2023/06/29 06:43:04;;;;;;;0.63;0.63;;;;;;;;;;7397842;19;20153;-89
2023/06/29 06:45:31;;;;;;;0.57;0.57;;;;;;;;;;7398701;19;20169;-91
2023/06/29 06:47:57;;;;;;;0.90;0.90;;;;;;;;;;7395877;19;20169;-91
2023/06/29 06:50:24;;;;;;;0.85;0.85;;;;;;;;;;7397259;19;20141;-91
2023/06/29 06:52:51;;;;;;;0.65;0.63;;;;;;;;;;7394972;19;20724;-90
2023/06/29 06:55:18;;;;;;;0.93;0.93;;;;;;;;;;7398639;19;20186;-88
2023/06/29 06:57:44;;;;;;;0.55;0.55;;;;;;;;;;7403116;19;20168;-88
2023/06/29 07:00:12;;;;;;;0.75;0.60;;;;;;;;;;7402034;19;20146;-87
2023/06/29 07:02:39;;;;;;;0.80;0.80;;;;;;;;;;7400326;19;20164;-88
2023/06/29 07:05:06;;;;;;;0.85;0.82;;;;;;;;;;7399463;19;20603;-88
2023/06/29 07:07:33;;;;;;;0.52;0.52;;;;;;;;;;7394760;19;20141;-87
2023/06/29 07:10:00;;;;;;;0.50;0.50;;;;;;;;;;7398620;19;20140;-89
2023/06/29 07:12:27;;;;;;;1.08;1.02;;;;;;;;;;7395920;19;20314;-89
2023/06/29 07:14:54;;;;;;;1.92;1.60;;;;;;;;;;7392185;19;20164;-89
2023/06/29 07:17:20;;;;;;;0.50;0.50;;;;;;;;;;7395906;19;20141;-89
2023/06/29 07:19:47;;;;;;;0.57;0.57;;;;;;;;;;7395150;19;20161;-88
2023/06/29 07:22:20;;;;;;;0.55;0.55;;;;;;;;;;7404713;19;20141;-88
2023/06/29 07:24:50;;;;;;;0.70;0.70;;;;;;;;;;7392433;19;20164;-87
2023/06/29 07:27:17;;;;;;;0.60;0.60;;;;;;;;;;7394582;19;20208;-88
2023/06/29 07:29:46;;;;;;;0.98;0.98;;;;;;;;;;7394740;19;20134;-89
2023/06/29 07:32:13;;;;;;;0.77;0.77;;;;;;;;;;7393049;19;20141;-92
2023/06/29 07:34:40;;;;;;;0.75;0.75;;;;;;;;;;7389357;19;20202;-90
2023/06/29 07:37:07;;;;;;;0.65;0.65;;;;;;;;;;7389611;19;20148;-90
2023/06/29 07:39:37;;;;;;;1.13;0.90;;;;;;;;;;7392623;19;20141;-89
2023/06/29 07:42:04;;;;;;;0.70;0.70;;;;;;;;;;7392241;19;20141;-90
2023/06/29 07:44:31;;;;;;;0.65;0.65;;;;;;;;;;7398063;19;20164;-89
2023/06/29 07:46:58;;;;;;;0.50;0.50;;;;;;;;;;7422793;19;20133;-89
2023/06/29 07:49:25;;;;;;;0.65;0.65;;;;;;;;;;7427231;19;20129;-89
2023/06/29 07:51:52;;;;;;;0.80;0.80;;;;;;;;;;7424972;19;20141;-90
2023/06/29 07:54:19;;;;;;;1.00;0.95;;;;;;;;;;7424807;19;20159;-89
2023/06/29 07:56:46;;;;;;;0.52;0.52;;;;;;;;;;7424893;19;20136;-88
2023/06/29 07:59:15;;;;;;;0.52;0.52;;;;;;;;;;7425207;19;20132;-89
2023/06/29 08:01:42;;;;;;;0.80;0.50;;;;;;;;;;7425576;19;20125;-88
2023/06/29 08:04:09;;;;;;;0.40;0.40;;;;;;;;;;7424392;19;20301;-87
2023/06/29 08:06:42;;;;;;;0.65;0.65;;;;;;;;;;7425016;19;20195;-87
2023/06/29 08:09:16;;;;;;;1.60;0.77;;;;;;;;;;7398085;19;20133;-88
2023/06/29 08:11:43;;;;;;;1.30;1.20;;;;;;;;;;7398633;19;20137;-87
2023/06/29 08:14:10;;;;;;;0.98;0.93;;;;;;;;;;7396947;19;20165;-87
2023/06/29 08:16:37;;;;;;;1.00;0.90;;;;;;;;;;7396665;19;20154;-89
2023/06/29 08:19:03;;;;;;;0.65;0.65;;;;;;;;;;7395771;19;20137;-89
2023/06/29 08:21:30;;;;;;;0.57;0.57;;;;;;;;;;7394464;19;20657;-89
2023/06/29 08:23:57;;;;;;;1.20;0.80;;;;;;;;;;7394213;19;20125;-89
2023/06/29 08:26:24;;;;;;;0.85;0.85;;;;;;;;;;7395926;19;20649;-88
2023/06/29 08:28:51;;;;;;;0.40;0.40;;;;;;;;;;7396507;19;20133;-89
2023/06/29 08:31:19;;;;;;;0.90;0.90;;;;;;;;;;7395441;19;20140;-89
2023/06/29 08:33:46;;;;;;;3.13;1.10;;;;;;;;;;7393065;19;20137;-88
2023/06/29 08:36:13;;;;;;;0.60;0.60;;;;;;;;;;7392536;19;20605;-89
2023/06/29 08:38:39;;;;;;;0.93;0.93;;;;;;;;;;7395544;19;20129;-89
2023/06/29 08:41:06;;;;;;;0.90;0.75;;;;;;;;;;7395054;19;20129;-89
2023/06/29 08:43:34;;;;;;;0.75;0.75;;;;;;;;;;7395144;19;20189;-89
2023/06/29 08:46:02;;;;;;;0.90;0.90;;;;;;;;;;7393036;19;20144;-89
2023/06/29 08:48:30;;;;;;;0.55;0.55;;;;;;;;;;7395699;19;20133;-89
2023/06/29 08:51:02;;;;;;;0.45;0.45;;;;;;;;;;7394030;19;20657;-89
2023/06/29 08:53:28;;;;;;;1.08;1.00;;;;;;;;;;7393200;19;20154;-89
2023/06/29 08:55:57;;;;;;;0.85;0.85;;;;;;;;;;7392404;19;20168;-89
2023/06/29 08:58:24;;;;;;;0.40;0.40;;;;;;;;;;7392028;19;20660;-89
2023/06/29 09:00:53;;;;;;;0.63;0.63;;;;;;;;;;7393915;19;20204;-88
2023/06/29 09:03:22;;;;;;;0.70;0.70;;;;;;;;;;7393923;19;20160;-89
2023/06/29 09:05:54;;;;;;;0.50;0.50;;;;;;;;;;7392764;19;20173;-89
2023/06/29 09:08:23;;;;;;;0.77;0.77;;;;;;;;;;7391811;19;20128;-89
2023/06/29 09:10:50;;;;;;;0.70;0.70;;;;;;;;;;7392509;19;20145;-88
2023/06/29 09:13:18;;;;;;;1.23;1.13;;;;;;;;;;7396789;19;20196;-87
2023/06/29 09:15:45;;;;;;;0.80;0.80;;;;;;;;;;7394564;19;20242;-86
2023/06/29 09:18:12;;;;;;;0.75;0.60;;;;;;;;;;7396788;19;20486;-86
2023/06/29 09:20:41;;;;;;;0.50;0.50;;;;;;;;;;7397556;19;20137;-89
2023/06/29 09:23:15;;;;;;;0.50;0.50;;;;;;;;;;7395989;19;20136;-89
2023/06/29 09:25:42;;;;;;;0.52;0.52;;;;;;;;;;7392175;19;20176;-88
2023/06/29 09:28:10;;;;;;;0.63;0.60;;;;;;;;;;7392368;19;20470;-88
2023/06/29 09:30:38;;;;;;;0.60;0.60;;;;;;;;;;7395893;19;20124;-89
2023/06/29 09:33:10;;;;;;;0.80;0.80;;;;;;;;;;7396695;19;20141;-88
2023/06/29 09:35:44;;;;;;;0.40;0.40;;;;;;;;;;7397646;19;20681;-89
2023/06/29 09:38:34;;;;;;;3.80;0.65;;;;;;;;;;7398938;19;20233;-89
2023/06/29 09:41:07;;;;;;;0.82;0.70;;;;;;;;;;7402059;19;20133;-89
2023/06/29 09:43:37;;;;;;;0.75;0.75;;;;;;;;;;7400683;19;20448;-89
2023/06/29 09:46:18;;;;;;;0.60;0.60;;;;;;;;;;7398154;19;20220;-89
2023/06/29 09:48:48;;;;;;;0.63;0.63;;;;;;;;;;7396418;19;20197;-90
2023/06/29 09:51:22;;;;;;;0.85;0.75;;;;;;;;;;7396230;19;20407;-89
2023/06/29 09:53:49;;;;;;;0.40;0.40;;;;;;;;;;7399875;19;20136;-89
2023/06/29 09:56:19;;;;;;;1.02;0.88;;;;;;;;;;7403038;19;20184;-88
2023/06/29 09:58:49;;;;;;;0.90;0.90;;;;;;;;;;7400252;19;20165;-89
2023/06/29 10:01:29;;;;;;;0.95;0.90;;;;;;;;;;7397872;19;20140;-89
2023/06/29 10:03:57;;;;;;;0.47;0.47;;;;;;;;;;7399734;19;20139;-88
2023/06/29 10:07:12;;;;;;;;;;;;;;;;;;;;;
2023/06/29 10:09:47;;;;;;;0.80;0.80;;;;;;;;;;7400647;19;20128;-89
2023/06/29 10:12:15;;;;;;;0.52;0.52;;;;;;;;;;7398657;19;20143;-89
2023/06/29 10:14:44;;;;;;;0.85;0.85;;;;;;;;;;7393442;19;20165;-89
2023/06/29 10:17:41;;;;;;;0.65;0.65;;;;;;;;;;7394728;19;20148;-90
2023/06/29 10:20:09;;;;;;;0.70;0.70;;;;;;;;;;7396279;19;20352;-89
2023/06/29 10:22:39;;;;;;;1.10;1.00;;;;;;;;;;7391404;19;20337;-88
2023/06/29 10:25:13;;;;;;;0.70;0.70;;;;;;;;;;7393084;19;20345;-88
2023/06/29 10:27:42;;;;;;;0.50;0.50;;;;;;;;;;7399444;19;20157;-88
2023/06/29 10:30:10;;;;;;;1.55;1.10;;;;;;;;;;7398723;19;20157;-88
2023/06/29 10:32:38;;;;;;;1.10;1.00;;;;;;;;;;7395268;19;20137;-88
2023/06/29 10:35:10;;;;;;;0.60;0.60;;;;;;;;;;7394453;19;20278;-89
2023/06/29 10:37:51;;;;;;;0.43;0.43;;;;;;;;;;7393630;19;20140;-89
2023/06/29 10:40:21;;;;;;;0.60;0.60;;;;;;;;;;7396792;19;20495;-89
2023/06/29 10:42:52;;;;;;;0.90;0.77;;;;;;;;;;7393450;19;20141;-91
2023/06/29 10:45:20;;;;;;;0.80;0.80;;;;;;;;;;7395163;19;20145;-88
2023/06/29 10:47:55;;;;;;;0.82;0.82;;;;;;;;;;7396121;19;20196;-89
2023/06/29 10:50:27;;;;;;;2.08;1.15;;;;;;;;;;7396678;19;20158;-88
2023/06/29 10:52:58;;;;;;;1.00;1.00;;;;;;;;;;7396733;19;20139;-88
2023/06/29 10:55:28;;;;;;;0.70;0.70;;;;;;;;;;7394086;19;20168;-88
2023/06/29 10:57:58;;;;;;;1.10;1.10;;;;;;;;;;7396727;19;20125;-88
2023/06/29 11:00:26;;;;;;;0.60;0.60;;;;;;;;;;7393140;19;20671;-89
2023/06/29 11:02:54;;;;;;;0.98;0.93;;;;;;;;;;7395136;19;20157;-89
2023/06/29 11:05:21;;;;;;;0.90;0.90;;;;;;;;;;7391842;19;20929;-89
2023/06/29 11:07:52;;;;;;;1.02;1.02;;;;;;;;;;7394584;19;20369;-88
2023/06/29 11:10:20;;;;;;;0.70;0.70;;;;;;;;;;7394150;19;20133;-88
2023/06/29 11:12:54;;;;;;;1.27;1.10;;;;;;;;;;7394671;19;20138;-88
2023/06/29 11:15:21;;;;;;;1.03;0.87;;;;;;;;;;7392698;19;20936;-88
2023/06/29 11:17:50;;;;;;;0.60;0.60;;;;;;;;;;7395707;19;20204;-89
2023/06/29 11:20:18;;;;;;;1.00;1.00;;;;;;;;;;7394453;19;20432;-88
2023/06/29 11:22:45;;;;;;;0.82;0.82;;;;;;;;;;7391177;19;20428;-89
2023/06/29 11:25:18;;;;;;;0.98;0.98;;;;;;;;;;7390488;19;20739;-89
2023/06/29 11:27:47;;;;;;;0.90;0.90;;;;;;;;;;7390976;19;20352;-89
2023/06/29 11:30:53;;;;;;;0.93;0.93;;;;;;;;;;7394375;19;20129;-88
2023/06/29 11:33:52;;;;;;;0.45;0.45;;;;;;;;;;7391460;19;20757;-88
2023/06/29 11:36:40;;;;;;;0.55;0.55;;;;;;;;;;7393625;19;20162;-89
2023/06/29 11:39:32;;;;;;;0.80;0.80;;;;;;;;;;7403712;19;20141;-89
2023/06/29 11:43:02;;;;;;;1.25;1.15;;;;;;;;;;7395684;19;20199;-89
2023/06/29 11:46:28;;;;;;;0.80;0.80;;;;;;;;;;7395127;19;20161;-88
2023/06/29 11:49:26;;;;;;;0.60;0.60;;;;;;;;;;7397267;19;20260;-89
2023/06/29 11:52:44;;;;;;;0.75;0.75;;;;;;;;;;7395456;19;20141;-88
2023/06/29 11:55:15;;;;;;;1.20;1.10;;;;;;;;;;7393396;19;20164;-90
2023/06/29 11:57:50;;;;;;;1.20;1.10;;;;;;;;;;7394736;19;20416;-89
2023/06/29 12:00:17;;;;;;;1.30;1.20;;;;;;;;;;7392674;19;20381;-89
2023/06/29 12:02:44;;;;;;;0.98;0.98;;;;;;;;;;7393834;19;20141;-90
2023/06/29 12:05:11;;;;;;;1.48;1.30;;;;;;;;;;7394878;19;20141;-90
2023/06/29 12:07:44;;;;;;;2.63;1.85;;;;;;;;;;7397991;19;20128;-89
2023/06/29 12:10:22;;;;;;;0.98;0.98;;;;;;;;;;7395618;19;20128;-89
2023/06/29 12:12:55;;;;;;;1.77;1.30;;;;;;;;;;7396272;19;20149;-89
2023/06/29 12:15:24;;;;;;;1.80;1.70;;;;;;;;;;7395190;19;20165;-87
2023/06/29 12:17:53;;;;;;;0.85;0.85;;;;;;;;;;7394944;19;20157;-88
2023/06/29 12:20:26;;;;;;;2.47;1.13;;;;;;;;;;7395088;19;20483;-88
2023/06/29 12:22:56;;;;;;;1.65;1.25;;;;;;;;;;7392777;19;20475;-90
2023/06/29 12:25:23;;;;;;;1.52;1.42;;;;;;;;;;7392984;19;20161;-89
2023/06/29 12:27:52;;;;;;;0.93;0.93;;;;;;;;;;7392466;19;20145;-88
2023/06/29 12:30:28;;;;;;;1.15;0.93;;;;;;;;;;7393179;19;20145;-89
2023/06/29 12:33:26;;;;;;;0.55;0.52;;;;;;;;;;7392309;19;20137;-89
2023/06/29 12:35:58;;;;;;;0.65;0.65;;;;;;;;;;7391222;19;20772;-89
2023/06/29 12:38:27;;;;;;;1.52;1.15;;;;;;;;;;7393631;19;20146;-88
2023/06/29 12:40:56;;;;;;;0.68;0.68;;;;;;;;;;7392732;19;20173;-89
2023/06/29 12:43:26;;;;;;;0.90;0.90;;;;;;;;;;7392454;19;20137;-88
2023/06/29 12:45:53;;;;;;;1.35;1.25;;;;;;;;;;7392724;19;20145;-89
2023/06/29 12:48:20;;;;;;;1.52;1.42;;;;;;;;;;7395296;19;20137;-89
2023/06/29 12:50:59;;;;;;;1.58;1.48;;;;;;;;;;7394585;19;20612;-88
2023/06/29 12:53:26;;;;;;;2.10;1.70;;;;;;;;;;7390985;19;20355;-88
2023/06/29 12:55:53;;;;;;;2.00;1.38;;;;;;;;;;7390687;19;20368;-89
2023/06/29 12:58:23;;;;;;;1.63;1.52;;;;;;;;;;7397635;19;20129;-89
2023/06/29 13:01:06;;;;;;;1.90;1.60;;;;;;;;;;7393377;19;20121;-89
2023/06/29 13:03:47;;;;;;;1.60;1.52;;;;;;;;;;7391609;19;20133;-88
2023/06/29 13:06:14;;;;;;;1.67;1.58;;;;;;;;;;7390522;19;20274;-89
2023/06/29 13:08:59;;;;;;;1.50;1.40;;;;;;;;;;7392789;19;20133;-89
2023/06/29 13:11:27;;;;;;;2.60;2.10;;;;;;;;;;7393603;19;20145;-89
2023/06/29 13:13:56;;;;;;;1.92;1.83;;;;;;;;;;7393088;19;20520;-89
2023/06/29 13:16:23;;;;;;;;;;;;;;;;;;7392565;19;20015;-89
2023/06/29 13:18:49;;;;;;;;;;;;;;;;;;7393303;19;19950;-89
2023/06/29 13:21:16;;;;;;;;;;;;;;;;;;7391191;19;19927;-88
2023/06/29 13:23:43;;;;;;;;;;;;;;;;;;7391144;19;20422;-88
2023/06/29 13:26:09;;;;;;;;;;;;;;;;;;7390790;19;20388;-89
2023/06/29 13:28:42;;;;;;;;;;;;;;;;;;7393830;19;19911;-90
2023/06/29 13:31:08;;;;;;;;;;;;;;;;;;7391381;19;19932;-89
2023/06/29 13:33:35;;;;;;;;;;;;;;;;;;7391967;19;19919;-90
2023/06/29 13:36:05;;;;;;;;;;;;;;;;;;7392023;19;19929;-90
2023/06/29 13:38:32;;;;;;;;;;;;;;;;;;7392277;19;19922;-89
2023/06/29 13:40:58;;;;;;;;;;;;;;;;;;7391318;19;20345;-89
2023/06/29 13:44:09;;;;;;;;;;;;;;;;;;7391778;19;19922;-88
2023/06/29 13:46:55;;;;;;;1.80;1.70;;;;;;;;;;7392928;19;20171;-89
2023/06/29 13:49:26;;;;;;;1.73;1.45;;;;;;;;;;7394356;19;20137;-89
2023/06/29 13:52:06;;;;;;;2.95;2.22;;;;;;;;;;7389031;19;20189;-88
2023/06/29 13:59:03;;;;;;;2.90;2.03;;;;;;;;;;7388598;19;20133;-88
2023/06/29 14:06:12;;;;;;;;;;;;;;;;;;;;;
2023/06/29 14:09:04;;;;;;;2.92;2.58;;;;;;;;;;7388744;19;20164;-88
2023/06/29 14:12:10;;;;;;;;;;;;;;;;;;;;;
2023/06/29 14:14:47;;;;;;;2.63;2.03;;;;;;;;;;7389056;19;20228;-89
2023/06/29 14:17:54;;;;;;;1.65;1.63;;;;;;;;;;7392150;19;20153;-90
2023/06/29 14:20:45;;;;;;;;;;;;;;;;;;7393915;19;20015;-89
2023/06/29 14:23:40;;;;;;;;;;;;;;;;;;7395546;19;20337;-89
2023/06/29 14:26:07;;;;;;;;;;;;;;;;;;7393091;19;19922;-88
2023/06/29 14:28:37;;;;;;;;;;;;;;;;;;7394579;19;19922;-88
2023/06/29 14:31:10;;;;;;;;;;;;;;;;;;7394143;19;19944;-89
2023/06/29 14:33:40;;;;;;;;;;;;;;;;;;7395077;19;19974;-89
2023/06/29 14:36:07;;;;;;;;;;;;;;;;;;7395845;19;19922;-88
2023/06/29 14:38:59;;;;;;;;;;;;;;;;;;7396200;19;19951;-88
2023/06/29 14:42:03;;;;;;;;;;;;;;;;;;7395631;19;19929;-88
2023/06/29 14:44:58;;;;;;;;;;;;;;;;;;7396819;19;20328;-87
2023/06/29 14:47:31;;;;;;;;;;;;;;;;;;7399364;19;19922;-87
2023/06/29 14:50:25;;;;;;;;;;;;;;;;;;7401628;19;19926;-86
2023/06/29 14:53:00;;;;;;;;;;;;;;;;;;7397391;19;19954;-88
2023/06/29 14:55:30;;;;;;;;;;;;;;;;;;7397017;19;19950;-88
2023/06/29 14:58:04;;;;;;;;;;;;;;;;;;7397354;19;19946;-88
2023/06/29 15:07:17;;;;;;;;;;;;;;;;;;7393406;19;20276;-89
2023/06/29 15:23:21;;;;;;;2.28;2.00;;;;;;;;;;7401802;19;20543;-88
2023/06/29 15:52:01;;;;;;;2.20;2.00;;;;;;;;;;7395360;19;20767;-90
2023/06/29 15:54:30;;;;;;;2.33;2.22;;;;;;;;;;7390858;19;20356;-88
2023/06/29 16:05:04;;;;;;;2.55;2.35;;;;;;;;;;7392084;19;20344;-91
2023/06/29 16:08:12;;;;;;;2.60;2.20;;;;;;;;;;7392608;19;20348;-90
2023/06/29 16:11:08;;;;;;;2.15;1.92;;;;;;;;;;7392305;19;20432;-89
2023/06/29 16:13:50;;;;;;;1.80;1.70;;;;;;;;;;7391891;19;20352;-90
2023/06/29 16:16:29;;;;;;;1.77;1.67;;;;;;;;;;7391979;19;20682;-90
2023/06/29 16:44:17;;;;;;;1.70;1.60;;;;;;;;;;7402998;19;20344;-89
2023/06/29 18:56:42;;;;;;;2.53;2.33;;;;;;;;;;7397996;19;20584;-87
2023/06/29 18:59:18;;;;;;;2.83;1.77;;;;;;;;;;7393693;19;20141;-86
2023/06/29 19:01:53;;;;;;;2.20;2.00;;;;;;;;;;7395015;19;20137;-88
2023/06/29 19:04:39;;;;;;;;;;;;;;;;;;;;;
2023/06/29 19:07:51;;;;;;;2.05;1.80;;;;;;;;;;7404701;19;20157;-88
2023/06/29 19:11:46;;;;;;;;;;;;;;;;;;;;;
2023/06/29 19:29:35;;;;;;;1.20;1.20;;;;;;;;;;7393190;19;20145;-90
2023/06/29 19:32:50;;;;;;;1.77;1.67;;;;;;;;;;7385489;19;20144;-91
2023/06/29 20:29:30;;;;;;;2.25;2.05;;;;;;;;;;7393622;19;20149;-89
2023/06/29 20:31:56;;;;;;;4.20;2.45;;;;;;;;;;7391786;19;20133;-88
2023/06/29 20:34:23;;;;;;;3.15;2.88;;;;;;;;;;7390611;19;20220;-92
2023/06/29 20:36:50;;;;;;;2.10;1.95;;;;;;;;;;7392606;19;20170;-93
2023/06/29 20:39:18;;;;;;;2.20;2.00;;;;;;;;;;7387977;19;20448;-92
2023/06/29 20:41:45;;;;;;;1.88;1.77;;;;;;;;;;7387109;19;20144;-90
2023/06/29 20:44:13;;;;;;;3.63;2.53;;;;;;;;;;7385016;19;20137;-91
2023/06/29 20:46:41;;;;;;;1.52;1.42;;;;;;;;;;7390803;19;20137;-94
2023/06/29 20:49:08;;;;;;;3.20;2.83;;;;;;;;;;7397195;19;20145;-93
2023/06/29 20:51:35;;;;;;;4.07;1.45;;;;;;;;;;7395030;19;20204;-90
2023/06/29 20:54:02;;;;;;;2.13;2.03;;;;;;;;;;7389204;19;20144;-89
2023/06/29 20:56:29;;;;;;;4.72;2.58;;;;;;;;;;7390879;19;20463;-92
2023/06/29 20:58:56;;;;;;;1.70;1.60;;;;;;;;;;7394999;19;20173;-89
2023/06/29 21:01:23;;;;;;;2.28;2.08;;;;;;;;;;7390188;19;20134;-91
2023/06/29 21:03:50;;;;;;;2.60;1.77;;;;;;;;;;7384343;19;20204;-93
2023/06/29 21:06:17;;;;;;;2.10;1.92;;;;;;;;;;7389041;19;20211;-94
2023/06/29 21:08:44;;;;;;;2.25;2.03;;;;;;;;;;7392589;19;20141;-93
